createdAt,value
2018-09-17T00:00:22.564Z,0.10
2018-09-17T00:01:22.555Z,0.10
2018-09-17T00:02:22.549Z,0.10
2018-09-17T00:03:22.544Z,0.10
2018-09-17T00:04:22.534Z,0.10
2018-09-17T00:05:22.526Z,0.10
2018-09-17T00:06:22.518Z,0.10
2018-09-17T00:07:22.511Z,0.10
2018-09-17T00:08:22.503Z,0.10
2018-09-17T00:09:22.495Z,0.10
2018-09-17T00:10:22.489Z,0.10
2018-09-17T00:11:22.481Z,0.10
2018-09-17T00:12:22.474Z,0.10
2018-09-17T00:13:22.465Z,0.10
2018-09-17T00:14:22.458Z,0.10
2018-09-17T00:15:22.451Z,0.10
2018-09-17T00:16:22.442Z,0.10
2018-09-17T00:17:22.435Z,0.10
2018-09-17T00:18:22.427Z,0.10
2018-09-17T00:19:22.420Z,0.10
2018-09-17T00:20:22.412Z,0.10
2018-09-17T00:21:22.409Z,0.10
2018-09-17T00:22:22.398Z,0.10
2018-09-17T00:23:22.390Z,0.10
2018-09-17T00:24:22.382Z,0.10
2018-09-17T00:25:22.373Z,0.10
2018-09-17T00:26:22.367Z,0.10
2018-09-17T00:27:22.360Z,0.10
2018-09-17T00:28:22.351Z,0.00
2018-09-17T00:29:22.344Z,0.10
2018-09-17T00:30:22.338Z,0.10
2018-09-17T00:31:22.329Z,0.10
2018-09-17T00:32:22.320Z,0.10
2018-09-17T00:33:22.313Z,0.10
2018-09-17T00:34:22.305Z,0.10
2018-09-17T00:35:22.298Z,0.10
2018-09-17T00:36:22.290Z,0.10
2018-09-17T00:37:22.282Z,0.00
2018-09-17T00:38:22.277Z,0.10
2018-09-17T00:39:22.270Z,0.00
2018-09-17T00:40:22.259Z,0.10
2018-09-17T00:41:22.251Z,0.10
2018-09-17T00:42:22.243Z,0.10
2018-09-17T00:43:22.235Z,0.10
2018-09-17T00:44:22.227Z,0.10
2018-09-17T00:45:22.219Z,0.10
2018-09-17T00:46:22.212Z,0.10
2018-09-17T00:47:22.207Z,0.10
2018-09-17T00:48:22.196Z,0.10
2018-09-17T00:49:22.188Z,0.10
2018-09-17T00:50:22.181Z,0.10
2018-09-17T00:51:22.173Z,0.10
2018-09-17T00:52:22.165Z,0.10
2018-09-17T00:53:22.163Z,0.10
2018-09-17T00:54:22.152Z,0.10
2018-09-17T00:55:22.142Z,0.10
2018-09-17T00:56:22.134Z,0.10
2018-09-17T00:57:22.126Z,0.00
2018-09-17T00:58:22.119Z,0.10
2018-09-17T00:59:22.110Z,0.10
2018-09-17T01:00:22.102Z,0.10
2018-09-17T01:01:22.094Z,0.10
2018-09-17T01:02:22.090Z,0.10
2018-09-17T01:03:22.079Z,0.10
2018-09-17T01:04:22.069Z,0.10
2018-09-17T01:05:22.063Z,0.10
2018-09-17T01:06:22.055Z,0.10
2018-09-17T01:07:22.048Z,0.10
2018-09-17T01:08:22.042Z,0.00
2018-09-17T01:09:22.031Z,0.00
2018-09-17T01:10:22.025Z,0.10
2018-09-17T01:11:22.015Z,0.10
2018-09-17T01:12:22.012Z,0.00
2018-09-17T01:13:21.998Z,0.10
2018-09-17T01:14:21.992Z,0.10
2018-09-17T01:15:21.985Z,0.10
2018-09-17T01:16:21.975Z,0.10
2018-09-17T01:17:21.971Z,0.10
2018-09-17T01:18:21.959Z,0.10
2018-09-17T01:19:21.956Z,0.00
2018-09-17T01:20:21.942Z,0.10
2018-09-17T01:21:21.935Z,0.00
2018-09-17T01:22:21.926Z,0.00
2018-09-17T01:23:21.922Z,0.00
2018-09-17T01:24:21.912Z,0.10
2018-09-17T01:25:21.903Z,0.00
2018-09-17T01:26:21.896Z,0.10
2018-09-17T01:27:21.888Z,0.10
2018-09-17T01:28:21.879Z,0.10
2018-09-17T01:29:21.871Z,0.10
2018-09-17T01:30:21.917Z,0.10
2018-09-17T01:31:21.856Z,0.10
2018-09-17T01:32:21.848Z,0.10
2018-09-17T01:33:21.839Z,0.10
2018-09-17T01:34:21.831Z,0.10
2018-09-17T01:35:21.825Z,0.10
2018-09-17T01:36:21.818Z,0.10
2018-09-17T01:37:21.807Z,0.10
2018-09-17T01:38:21.802Z,0.10
2018-09-17T01:39:21.791Z,0.10
2018-09-17T01:40:21.782Z,0.10
2018-09-17T01:41:21.774Z,0.10
2018-09-17T01:42:21.766Z,0.10
2018-09-17T01:43:21.758Z,0.00
2018-09-17T01:44:21.950Z,0.00
2018-09-17T01:45:21.741Z,0.00
2018-09-17T01:46:21.767Z,0.10
2018-09-17T01:47:21.726Z,0.10
2018-09-17T01:48:21.716Z,0.10
2018-09-17T01:49:21.707Z,0.10
2018-09-17T01:50:21.701Z,0.10
2018-09-17T01:51:21.691Z,0.10
2018-09-17T01:52:21.683Z,0.10
2018-09-17T01:53:21.675Z,0.10
2018-09-17T01:54:21.670Z,0.10
2018-09-17T01:55:21.660Z,0.10
2018-09-17T01:56:21.650Z,0.10
2018-09-17T01:57:21.642Z,0.10
2018-09-17T01:58:21.637Z,0.00
2018-09-17T01:59:21.627Z,0.10
2018-09-17T02:00:21.617Z,0.10
2018-09-17T02:01:21.608Z,0.10
2018-09-17T02:02:21.601Z,0.10
2018-09-17T02:03:21.592Z,0.10
2018-09-17T02:04:21.583Z,0.10
2018-09-17T02:05:21.574Z,0.10
2018-09-17T02:06:21.566Z,0.10
2018-09-17T02:07:21.558Z,0.10
2018-09-17T02:08:21.551Z,0.10
2018-09-17T02:09:21.542Z,0.10
2018-09-17T02:10:21.533Z,0.10
2018-09-17T02:11:21.524Z,0.10
2018-09-17T02:12:21.515Z,0.10
2018-09-17T02:13:21.509Z,0.10
2018-09-17T02:14:21.499Z,0.10
2018-09-17T02:15:21.490Z,0.10
2018-09-17T02:16:21.482Z,0.10
2018-09-17T02:17:21.473Z,0.00
2018-09-17T02:18:21.466Z,0.10
2018-09-17T02:19:21.457Z,0.10
2018-09-17T02:20:21.446Z,0.10
2018-09-17T02:21:21.441Z,0.10
2018-09-17T02:22:21.430Z,0.00
2018-09-17T02:23:21.422Z,0.00
2018-09-17T02:24:21.412Z,0.00
2018-09-17T02:25:21.404Z,0.00
2018-09-17T02:26:21.396Z,0.10
2018-09-17T02:27:21.388Z,0.00
2018-09-17T02:28:21.378Z,0.00
2018-09-17T02:29:21.371Z,0.10
2018-09-17T02:30:21.362Z,0.00
2018-09-17T02:31:21.355Z,0.00
2018-09-17T02:32:21.345Z,0.10
2018-09-17T02:33:21.335Z,0.00
2018-09-17T02:34:21.327Z,0.10
2018-09-17T02:35:21.320Z,0.10
2018-09-17T02:36:21.309Z,0.10
2018-09-17T02:37:21.303Z,0.10
2018-09-17T02:38:21.295Z,0.10
2018-09-17T02:39:21.285Z,0.10
2018-09-17T02:40:21.281Z,0.10
2018-09-17T02:41:21.268Z,0.10
2018-09-17T02:42:21.260Z,0.10
2018-09-17T02:43:21.250Z,0.10
2018-09-17T02:44:21.242Z,0.10
2018-09-17T02:45:21.235Z,0.10
2018-09-17T02:46:21.231Z,0.10
2018-09-17T02:47:21.224Z,0.10
2018-09-17T02:48:21.210Z,0.10
2018-09-17T02:49:21.201Z,0.10
2018-09-17T02:50:21.194Z,0.10
2018-09-17T02:51:21.186Z,0.10
2018-09-17T02:52:21.176Z,0.10
2018-09-17T02:53:21.191Z,0.00
2018-09-17T02:54:21.160Z,0.10
2018-09-17T02:55:21.153Z,0.10
2018-09-17T02:56:21.144Z,0.10
2018-09-17T02:57:21.140Z,0.10
2018-09-17T02:58:21.128Z,0.10
2018-09-17T02:59:21.119Z,0.10
2018-09-17T03:00:21.109Z,0.10
2018-09-17T03:01:21.103Z,0.10
2018-09-17T03:02:21.097Z,0.10
2018-09-17T03:03:21.087Z,0.10
2018-09-17T03:04:21.078Z,0.10
2018-09-17T03:05:21.069Z,0.10
2018-09-17T03:06:21.063Z,0.10
2018-09-17T03:07:21.053Z,0.10
2018-09-17T03:08:21.047Z,0.00
2018-09-17T03:09:21.035Z,0.10
2018-09-17T03:10:21.028Z,0.00
2018-09-17T03:11:21.020Z,0.10
2018-09-17T03:12:21.011Z,0.10
2018-09-17T03:13:21.002Z,0.10
2018-09-17T03:14:20.995Z,0.10
2018-09-17T03:15:20.988Z,0.10
2018-09-17T03:16:20.977Z,0.10
2018-09-17T03:17:20.970Z,0.10
2018-09-17T03:18:20.961Z,0.00
2018-09-17T03:19:20.953Z,0.10
2018-09-17T03:20:20.943Z,0.00
2018-09-17T03:21:20.934Z,0.10
2018-09-17T03:22:20.927Z,0.10
2018-09-17T03:23:20.921Z,0.10
2018-09-17T03:24:20.995Z,0.10
2018-09-17T03:25:20.906Z,0.00
2018-09-17T03:26:20.894Z,0.10
2018-09-17T03:27:20.887Z,0.10
2018-09-17T03:28:20.877Z,0.10
2018-09-17T03:29:20.870Z,0.10
2018-09-17T03:30:20.861Z,0.10
2018-09-17T03:31:20.852Z,0.10
2018-09-17T03:32:20.845Z,0.10
2018-09-17T03:33:20.836Z,0.10
2018-09-17T03:34:20.828Z,0.10
2018-09-17T03:35:20.820Z,0.10
2018-09-17T03:36:20.810Z,0.10
2018-09-17T03:37:20.802Z,0.10
2018-09-17T03:38:20.797Z,0.10
2018-09-17T03:39:20.787Z,0.10
2018-09-17T03:40:20.777Z,0.10
2018-09-17T03:41:20.770Z,0.10
2018-09-17T03:42:20.761Z,0.10
2018-09-17T03:43:20.752Z,0.10
2018-09-17T03:44:20.745Z,0.10
2018-09-17T03:45:20.737Z,0.10
2018-09-17T03:46:20.761Z,0.00
2018-09-17T03:47:20.722Z,0.10
2018-09-17T03:48:20.712Z,0.10
2018-09-17T03:49:20.704Z,0.10
2018-09-17T03:50:20.696Z,0.10
2018-09-17T03:51:20.694Z,0.10
2018-09-17T03:52:20.679Z,0.10
2018-09-17T03:53:20.671Z,0.10
2018-09-17T03:54:20.662Z,0.00
2018-09-17T03:55:20.655Z,0.00
2018-09-17T03:56:20.646Z,0.10
2018-09-17T03:57:20.638Z,0.00
2018-09-17T03:58:20.630Z,0.10
2018-09-17T03:59:20.624Z,0.10
2018-09-17T04:00:20.613Z,0.00
2018-09-17T04:01:20.611Z,0.10
2018-09-17T04:02:20.597Z,0.10
2018-09-17T04:03:20.589Z,0.10
2018-09-17T04:04:20.584Z,0.10
2018-09-17T04:05:20.571Z,0.10
2018-09-17T04:06:20.564Z,0.10
2018-09-17T04:07:20.556Z,0.10
2018-09-17T04:08:20.546Z,0.00
2018-09-17T04:09:20.539Z,0.10
2018-09-17T04:10:20.531Z,0.10
2018-09-17T04:11:20.526Z,0.10
2018-09-17T04:12:20.514Z,0.00
2018-09-17T04:13:20.506Z,0.10
2018-09-17T04:14:20.498Z,0.10
2018-09-17T04:15:20.497Z,0.10
2018-09-17T04:16:20.481Z,0.10
2018-09-17T04:17:20.472Z,0.10
2018-09-17T04:18:20.464Z,0.10
2018-09-17T04:19:20.456Z,0.10
2018-09-17T04:20:20.446Z,0.10
2018-09-17T04:21:20.438Z,0.10
2018-09-17T04:22:20.429Z,0.10
2018-09-17T04:23:20.423Z,0.10
2018-09-17T04:24:20.412Z,0.10
2018-09-17T04:25:20.404Z,0.10
2018-09-17T04:26:20.395Z,0.00
2018-09-17T04:27:20.387Z,0.00
2018-09-17T04:28:20.378Z,0.10
2018-09-17T04:29:20.369Z,0.10
2018-09-17T04:30:20.361Z,0.10
2018-09-17T04:31:20.353Z,0.10
2018-09-17T04:32:20.344Z,0.00
2018-09-17T04:33:20.334Z,0.00
2018-09-17T04:34:20.328Z,0.00
2018-09-17T04:35:20.318Z,0.00
2018-09-17T04:36:20.308Z,0.10
2018-09-17T04:37:20.301Z,0.10
2018-09-17T04:38:20.291Z,0.10
2018-09-17T04:39:20.281Z,0.10
2018-09-17T04:40:20.272Z,0.00
2018-09-17T04:41:20.263Z,0.10
2018-09-17T04:42:20.255Z,0.00
2018-09-17T04:43:20.247Z,0.10
2018-09-17T04:44:20.237Z,0.10
2018-09-17T04:45:20.230Z,0.10
2018-09-17T04:46:20.219Z,0.10
2018-09-17T04:47:20.212Z,0.10
2018-09-17T04:48:20.203Z,0.10
2018-09-17T04:49:20.196Z,0.10
2018-09-17T04:50:20.190Z,0.00
2018-09-17T04:51:20.176Z,0.00
2018-09-17T04:52:20.166Z,0.00
2018-09-17T04:53:20.157Z,0.00
2018-09-17T04:54:20.149Z,0.10
2018-09-17T04:55:20.141Z,0.10
2018-09-17T04:56:20.131Z,0.10
2018-09-17T04:57:20.137Z,0.10
2018-09-17T04:58:20.114Z,0.10
2018-09-17T04:59:20.106Z,0.10
2018-09-17T05:00:20.099Z,0.10
2018-09-17T05:01:20.090Z,0.10
2018-09-17T05:02:20.081Z,0.10
2018-09-17T05:03:20.071Z,0.10
2018-09-17T05:04:20.062Z,0.10
2018-09-17T05:06:20.047Z,0.10
2018-09-17T05:07:20.051Z,0.10
2018-09-17T05:08:20.030Z,0.10
2018-09-17T05:09:20.058Z,0.10
2018-09-17T05:10:20.010Z,0.10
2018-09-17T05:11:20.001Z,0.00
2018-09-17T05:12:19.992Z,0.10
2018-09-17T05:13:20.152Z,0.10
2018-09-17T05:14:19.976Z,0.10
2018-09-17T05:15:19.968Z,0.10
2018-09-17T05:16:19.958Z,0.00
2018-09-17T05:17:19.951Z,0.00
2018-09-17T05:18:19.942Z,0.10
2018-09-17T05:19:19.933Z,0.10
2018-09-17T05:20:19.924Z,0.00
2018-09-17T05:21:19.919Z,0.10
2018-09-17T05:22:19.907Z,0.10
2018-09-17T05:23:19.899Z,0.10
2018-09-17T05:24:19.889Z,0.10
2018-09-17T05:25:19.884Z,0.10
2018-09-17T05:26:19.873Z,0.10
2018-09-17T05:27:19.865Z,0.10
2018-09-17T05:28:19.856Z,0.10
2018-09-17T05:29:19.848Z,0.10
2018-09-17T05:30:19.845Z,0.10
2018-09-17T05:31:19.831Z,0.10
2018-09-17T05:32:19.823Z,0.10
2018-09-17T05:33:19.814Z,0.10
2018-09-17T05:34:19.806Z,0.10
2018-09-17T05:35:19.801Z,0.10
2018-09-17T05:36:19.792Z,0.10
2018-09-17T05:37:19.780Z,0.10
2018-09-17T05:38:19.778Z,0.10
2018-09-17T05:39:19.764Z,0.10
2018-09-17T05:40:19.757Z,0.10
2018-09-17T05:41:19.750Z,0.10
2018-09-17T05:42:19.738Z,0.00
2018-09-17T05:43:19.730Z,0.00
2018-09-17T05:44:19.749Z,0.10
2018-09-17T05:45:19.715Z,0.10
2018-09-17T05:46:19.706Z,0.10
2018-09-17T05:47:19.697Z,0.10
2018-09-17T05:48:19.689Z,0.10
2018-09-17T05:49:19.681Z,0.10
2018-09-17T05:50:19.678Z,0.10
2018-09-17T05:51:19.665Z,0.10
2018-09-17T05:52:19.656Z,0.10
2018-09-17T05:53:19.650Z,0.00
2018-09-17T05:54:19.641Z,0.10
2018-09-17T05:55:19.632Z,0.10
2018-09-17T05:56:19.623Z,0.10
2018-09-17T05:57:19.614Z,0.10
2018-09-17T05:58:19.607Z,0.10
2018-09-17T05:59:19.599Z,0.00
2018-09-17T06:00:19.589Z,0.00
2018-09-17T06:01:19.582Z,0.10
2018-09-17T06:02:19.574Z,0.10
2018-09-17T06:03:19.566Z,0.10
2018-09-17T06:04:19.558Z,0.10
2018-09-17T06:05:19.550Z,0.10
2018-09-17T06:06:19.543Z,0.10
2018-09-17T06:07:19.735Z,0.10
2018-09-17T06:08:19.527Z,0.10
2018-09-17T06:09:19.516Z,0.10
2018-09-17T06:10:19.509Z,0.10
2018-09-17T06:11:19.576Z,0.10
2018-09-17T06:12:19.492Z,0.10
2018-09-17T06:13:19.485Z,0.10
2018-09-17T06:14:19.483Z,0.10
2018-09-17T06:15:19.472Z,0.00
2018-09-17T06:16:19.460Z,0.10
2018-09-17T06:17:19.527Z,0.10
2018-09-17T06:18:19.444Z,0.10
2018-09-17T06:19:19.441Z,0.10
2018-09-17T06:20:19.432Z,0.10
2018-09-17T06:21:19.419Z,0.00
2018-09-17T06:22:19.418Z,0.10
2018-09-17T06:23:19.454Z,0.10
2018-09-17T06:24:19.600Z,0.10
2018-09-17T06:25:19.390Z,0.10
2018-09-17T06:26:19.382Z,0.10
2018-09-17T06:27:19.374Z,0.10
2018-09-17T06:28:19.370Z,0.10
2018-09-17T06:29:19.359Z,0.00
2018-09-17T06:30:19.358Z,0.00
2018-09-17T06:31:19.347Z,0.10
2018-09-17T06:32:19.339Z,0.10
2018-09-17T06:33:19.333Z,0.10
2018-09-17T06:34:19.323Z,0.10
2018-09-17T06:35:19.316Z,0.10
2018-09-17T06:36:19.410Z,0.10
2018-09-17T06:37:19.301Z,0.10
2018-09-17T06:38:19.293Z,0.10
2018-09-17T06:39:19.286Z,0.10
2018-09-17T06:40:19.278Z,0.10
2018-09-17T06:41:19.275Z,0.10
2018-09-17T06:42:19.267Z,0.10
2018-09-17T06:43:19.258Z,0.10
2018-09-17T06:44:19.251Z,0.10
2018-09-17T06:45:19.244Z,0.10
2018-09-17T06:46:19.237Z,0.10
2018-09-17T06:47:19.230Z,0.10
2018-09-17T06:48:19.223Z,0.10
2018-09-17T06:49:19.216Z,0.10
2018-09-17T06:50:19.215Z,0.10
2018-09-17T06:51:19.245Z,0.10
2018-09-17T06:52:19.195Z,0.10
2018-09-17T06:53:19.189Z,0.10
2018-09-17T06:54:19.183Z,0.10
2018-09-17T06:55:19.176Z,0.10
2018-09-17T06:56:19.170Z,0.10
2018-09-17T06:57:19.166Z,0.10
2018-09-17T06:58:19.156Z,0.10
2018-09-17T06:59:19.151Z,0.10
2018-09-17T07:00:19.145Z,0.10
2018-09-17T07:01:19.138Z,0.10
2018-09-17T07:02:19.132Z,0.10
2018-09-17T07:03:19.132Z,0.10
2018-09-17T07:04:19.120Z,0.10
2018-09-17T07:05:19.113Z,0.10
2018-09-17T07:06:19.205Z,0.10
2018-09-17T07:07:19.102Z,0.10
2018-09-17T07:08:19.098Z,0.10
2018-09-17T07:09:19.090Z,0.10
2018-09-17T07:10:19.085Z,0.10
2018-09-17T07:11:19.077Z,0.10
2018-09-17T07:12:19.070Z,0.10
2018-09-17T07:13:19.065Z,0.10
2018-09-17T07:14:19.061Z,0.10
2018-09-17T07:15:19.073Z,0.10
2018-09-17T07:16:19.048Z,0.10
2018-09-17T07:17:19.041Z,0.10
2018-09-17T07:18:19.040Z,0.10
2018-09-17T07:19:19.038Z,0.10
2018-09-17T07:20:19.025Z,0.10
2018-09-17T07:21:19.022Z,0.10
2018-09-17T07:22:19.014Z,0.10
2018-09-17T07:23:19.010Z,0.10
2018-09-17T07:24:19.008Z,0.10
2018-09-17T07:25:19.051Z,0.10
2018-09-17T07:26:19.205Z,0.10
2018-09-17T07:27:18.997Z,0.10
2018-09-17T07:28:18.988Z,0.10
2018-09-17T07:29:18.991Z,0.10
2018-09-17T07:30:18.982Z,0.10
2018-09-17T07:31:18.980Z,0.10
2018-09-17T07:32:18.976Z,0.20
2018-09-17T07:33:18.981Z,0.20
2018-09-17T07:34:18.974Z,0.20
2018-09-17T07:35:18.978Z,0.20
2018-09-17T07:36:19.068Z,0.20
2018-09-17T07:37:18.972Z,0.20
2018-09-17T07:38:18.976Z,0.20
2018-09-17T07:39:18.972Z,0.20
2018-09-17T07:40:18.971Z,0.20
2018-09-17T07:41:18.972Z,0.20
2018-09-17T07:42:18.973Z,0.20
2018-09-17T07:43:18.977Z,0.20
2018-09-17T07:44:18.974Z,0.20
2018-09-17T07:45:18.975Z,0.20
2018-09-17T07:46:18.977Z,0.30
2018-09-17T07:47:18.979Z,0.20
2018-09-17T07:48:18.980Z,0.20
2018-09-17T07:49:18.982Z,0.20
2018-09-17T07:50:18.984Z,0.30
2018-09-17T07:51:18.989Z,0.20
2018-09-17T07:52:18.990Z,0.30
2018-09-17T07:53:19.061Z,0.30
2018-09-17T07:54:19.039Z,0.30
2018-09-17T07:55:18.998Z,0.30
2018-09-17T07:56:19.001Z,0.30
2018-09-17T07:57:19.004Z,0.30
2018-09-17T07:58:19.010Z,0.30
2018-09-17T07:59:19.011Z,0.30
2018-09-17T08:00:19.016Z,0.30
2018-09-17T08:01:19.021Z,0.30
2018-09-17T08:02:19.025Z,0.40
2018-09-17T08:03:19.028Z,0.40
2018-09-17T08:04:19.035Z,0.40
2018-09-17T08:05:19.037Z,0.40
2018-09-17T08:06:19.045Z,0.40
2018-09-17T08:07:19.048Z,0.40
2018-09-17T08:08:19.053Z,0.40
2018-09-17T08:09:19.058Z,0.50
2018-09-17T08:10:19.064Z,0.50
2018-09-17T08:11:19.072Z,0.50
2018-09-17T08:12:19.074Z,0.50
2018-09-17T08:13:19.284Z,0.50
2018-09-17T08:14:19.090Z,0.50
2018-09-17T08:15:19.298Z,0.60
2018-09-17T08:16:19.102Z,0.60
2018-09-17T08:17:19.109Z,0.60
2018-09-17T08:18:19.116Z,0.60
2018-09-17T08:19:19.132Z,0.60
2018-09-17T08:20:19.130Z,0.70
2018-09-17T08:21:19.140Z,0.70
2018-09-17T08:22:19.149Z,0.70
2018-09-17T08:23:19.153Z,0.60
2018-09-17T08:24:19.160Z,0.70
2018-09-17T08:25:19.174Z,0.70
2018-09-17T08:26:19.176Z,0.70
2018-09-17T08:27:19.189Z,0.70
2018-09-17T08:28:19.191Z,0.80
2018-09-17T08:29:19.199Z,0.70
2018-09-17T08:30:19.208Z,0.80
2018-09-17T08:31:19.224Z,0.80
2018-09-17T08:32:19.223Z,0.90
2018-09-17T08:33:19.230Z,0.80
2018-09-17T08:34:19.242Z,0.80
2018-09-17T08:35:19.248Z,0.80
2018-09-17T08:36:19.255Z,0.80
2018-09-17T08:37:19.267Z,0.70
2018-09-17T08:38:19.297Z,0.70
2018-09-17T08:39:19.281Z,0.80
2018-09-17T08:40:19.288Z,0.70
2018-09-17T08:41:19.296Z,0.70
2018-09-17T08:42:19.304Z,0.70
2018-09-17T08:43:19.312Z,0.70
2018-09-17T08:44:19.318Z,0.70
2018-09-17T08:45:19.332Z,0.70
2018-09-17T08:46:19.340Z,0.70
2018-09-17T08:47:19.345Z,0.70
2018-09-17T08:48:19.349Z,0.70
2018-09-17T08:49:19.357Z,0.70
2018-09-17T08:50:19.364Z,0.70
2018-09-17T08:51:19.373Z,0.70
2018-09-17T08:52:19.399Z,0.80
2018-09-17T08:53:19.389Z,0.80
2018-09-17T08:54:19.401Z,0.80
2018-09-17T08:55:19.408Z,0.70
2018-09-17T08:56:19.413Z,0.70
2018-09-17T08:57:19.423Z,0.80
2018-09-17T08:58:19.511Z,0.80
2018-09-17T08:59:19.439Z,0.80
2018-09-17T09:00:19.448Z,0.70
2018-09-17T09:01:19.454Z,0.80
2018-09-17T09:02:19.464Z,0.80
2018-09-17T09:03:19.470Z,0.80
2018-09-17T09:04:19.478Z,0.80
2018-09-17T09:05:19.485Z,0.80
2018-09-17T09:06:19.495Z,0.80
2018-09-17T09:07:19.503Z,0.80
2018-09-17T09:08:19.509Z,0.80
2018-09-17T09:09:19.516Z,0.80
2018-09-17T09:10:19.525Z,0.80
2018-09-17T09:11:19.537Z,0.80
2018-09-17T09:12:19.543Z,0.80
2018-09-17T09:13:19.548Z,0.80
2018-09-17T09:14:19.556Z,0.80
2018-09-17T09:15:19.565Z,0.90
2018-09-17T09:16:19.572Z,0.80
2018-09-17T09:17:19.581Z,0.90
2018-09-17T09:18:19.589Z,0.80
2018-09-17T09:19:19.598Z,0.80
2018-09-17T09:20:19.605Z,0.80
2018-09-17T09:21:19.615Z,0.90
2018-09-17T09:22:19.625Z,0.90
2018-09-17T09:23:19.635Z,0.90
2018-09-17T09:24:19.638Z,0.80
2018-09-17T09:25:19.650Z,0.90
2018-09-17T09:26:19.682Z,0.90
2018-09-17T09:27:19.665Z,0.90
2018-09-17T09:28:19.675Z,0.90
2018-09-17T09:29:19.681Z,0.90
2018-09-17T09:30:19.894Z,0.90
2018-09-17T09:31:19.697Z,0.80
2018-09-17T09:32:19.706Z,0.90
2018-09-17T09:33:19.715Z,0.90
2018-09-17T09:34:19.723Z,0.80
2018-09-17T09:35:19.734Z,0.90
2018-09-17T09:36:19.741Z,1.00
2018-09-17T09:37:19.750Z,1.00
2018-09-17T09:38:19.758Z,1.10
2018-09-17T09:39:19.770Z,1.20
2018-09-17T09:40:19.775Z,1.20
2018-09-17T09:41:19.785Z,1.20
2018-09-17T09:42:19.797Z,1.30
2018-09-17T09:43:19.810Z,1.30
2018-09-17T09:44:19.819Z,1.40
2018-09-17T09:45:19.824Z,1.40
2018-09-17T09:46:19.858Z,1.40
2018-09-17T09:47:19.849Z,1.40
2018-09-17T09:48:19.860Z,1.40
2018-09-17T09:49:19.871Z,1.40
2018-09-17T09:50:19.878Z,1.40
2018-09-17T09:51:19.895Z,1.30
2018-09-17T09:52:19.901Z,1.30
2018-09-17T09:53:19.914Z,1.30
2018-09-17T09:54:19.918Z,1.30
2018-09-17T09:56:19.936Z,1.20
2018-09-17T09:57:19.946Z,1.20
2018-09-17T09:58:19.956Z,1.10
2018-09-17T09:59:19.966Z,1.20
2018-09-17T10:00:19.974Z,1.10
2018-09-17T10:01:19.985Z,1.00
2018-09-17T10:02:19.993Z,1.10
2018-09-17T10:03:20.007Z,1.10
2018-09-17T10:04:20.015Z,1.00
2018-09-17T10:05:20.019Z,1.00
2018-09-17T10:06:20.029Z,1.00
2018-09-17T10:07:20.039Z,0.90
2018-09-17T10:08:20.045Z,1.00
2018-09-17T10:09:20.055Z,1.00
2018-09-17T10:10:20.063Z,1.00
2018-09-17T10:11:20.076Z,1.10
2018-09-17T10:12:20.084Z,1.10
2018-09-17T10:13:20.092Z,1.10
2018-09-17T10:14:20.104Z,1.10
2018-09-17T10:15:20.112Z,1.10
2018-09-17T10:16:20.121Z,1.10
2018-09-17T10:17:20.331Z,1.20
2018-09-17T10:18:20.135Z,1.20
2018-09-17T10:19:20.203Z,1.30
2018-09-17T10:20:20.155Z,1.20
2018-09-17T10:21:20.166Z,1.30
2018-09-17T10:22:20.176Z,1.20
2018-09-17T10:23:20.183Z,1.30
2018-09-17T10:24:20.191Z,1.30
2018-09-17T10:25:20.201Z,1.20
2018-09-17T10:26:20.213Z,1.20
2018-09-17T10:27:20.220Z,1.20
2018-09-17T10:28:20.232Z,1.30
2018-09-17T10:29:20.239Z,1.30
2018-09-17T10:30:20.250Z,1.30
2018-09-17T10:31:20.263Z,1.30
2018-09-17T10:32:20.268Z,1.30
2018-09-17T10:33:20.281Z,1.30
2018-09-17T10:34:20.288Z,1.30
2018-09-17T10:35:20.503Z,1.30
2018-09-17T10:36:20.314Z,1.40
2018-09-17T10:37:20.319Z,1.40
2018-09-17T10:38:20.330Z,1.40
2018-09-17T10:39:20.341Z,1.50
2018-09-17T10:40:20.351Z,1.50
2018-09-17T10:41:20.364Z,1.60
2018-09-17T10:42:20.375Z,1.60
2018-09-17T10:43:20.386Z,1.60
2018-09-17T10:44:20.402Z,1.60
2018-09-17T10:45:20.407Z,1.60
2018-09-17T10:46:20.421Z,1.60
2018-09-17T10:47:20.431Z,1.60
2018-09-17T10:48:20.440Z,1.70
2018-09-17T10:49:20.451Z,1.70
2018-09-17T10:50:20.465Z,1.70
2018-09-17T10:51:20.475Z,1.80
2018-09-17T10:52:20.485Z,1.70
2018-09-17T10:53:20.501Z,1.70
2018-09-17T10:54:20.508Z,1.80
2018-09-17T10:55:20.520Z,1.70
2018-09-17T10:56:20.533Z,1.70
2018-09-17T10:57:20.559Z,1.60
2018-09-17T10:58:20.555Z,1.60
2018-09-17T10:59:20.565Z,1.60
2018-09-17T11:00:20.579Z,1.60
2018-09-17T11:01:20.587Z,1.70
2018-09-17T11:02:20.598Z,1.80
2018-09-17T11:03:20.612Z,1.80
2018-09-17T11:04:20.620Z,1.70
2018-09-17T11:05:20.632Z,1.70
2018-09-17T11:06:20.644Z,1.70
2018-09-17T11:07:20.655Z,1.70
2018-09-17T11:08:20.706Z,1.60
2018-09-17T11:09:20.677Z,1.60
2018-09-17T11:10:20.688Z,1.60
2018-09-17T11:11:20.701Z,1.60
2018-09-17T11:12:20.709Z,1.60
2018-09-17T11:13:20.720Z,1.70
2018-09-17T11:14:20.732Z,1.60
2018-09-17T11:15:20.743Z,1.60
2018-09-17T11:16:20.754Z,1.60
2018-09-17T11:17:20.829Z,1.70
2018-09-17T11:18:20.780Z,1.70
2018-09-17T11:19:20.789Z,1.70
2018-09-17T11:20:20.798Z,1.70
2018-09-17T11:21:20.811Z,1.70
2018-09-17T11:22:20.823Z,1.60
2018-09-17T11:23:20.836Z,1.60
2018-09-17T11:24:20.849Z,1.70
2018-09-17T11:25:20.855Z,1.70
2018-09-17T11:26:20.869Z,1.70
2018-09-17T11:27:20.878Z,1.60
2018-09-17T11:28:20.888Z,1.60
2018-09-17T11:29:20.902Z,1.60
2018-09-17T11:30:20.910Z,1.50
2018-09-17T11:31:20.981Z,1.40
2018-09-17T11:32:20.932Z,1.40
2018-09-17T11:33:20.942Z,1.30
2018-09-17T11:34:20.954Z,1.30
2018-09-17T11:35:20.964Z,1.30
2018-09-17T11:36:20.974Z,1.20
2018-09-17T11:37:20.984Z,1.20
2018-09-17T11:38:20.994Z,1.20
2018-09-17T11:39:21.009Z,1.20
2018-09-17T11:40:21.014Z,1.10
2018-09-17T11:41:21.025Z,1.20
2018-09-17T11:42:21.035Z,1.20
2018-09-17T11:43:21.055Z,1.20
2018-09-17T11:44:21.055Z,1.10
2018-09-17T11:45:21.066Z,1.10
2018-09-17T11:46:21.078Z,1.20
2018-09-17T11:47:21.089Z,1.20
2018-09-17T11:48:21.165Z,1.30
2018-09-17T11:49:21.110Z,1.30
2018-09-17T11:50:21.116Z,1.20
2018-09-17T11:51:21.131Z,1.30
2018-09-17T11:52:21.137Z,1.20
2018-09-17T11:53:21.148Z,1.20
2018-09-17T11:54:21.155Z,1.20
2018-09-17T11:55:21.165Z,1.20
2018-09-17T11:56:21.176Z,1.10
2018-09-17T11:57:21.183Z,1.10
2018-09-17T11:58:21.194Z,1.10
2018-09-17T11:59:21.203Z,1.10
2018-09-17T12:00:21.213Z,1.10
2018-09-17T12:01:21.221Z,1.00
2018-09-17T12:02:21.504Z,1.00
2018-09-17T12:03:21.240Z,0.90
2018-09-17T12:04:21.249Z,0.80
2018-09-17T12:05:21.256Z,0.80
2018-09-17T12:06:21.269Z,0.80
2018-09-17T12:07:21.274Z,0.80
2018-09-17T12:08:21.280Z,0.70
2018-09-17T12:09:21.588Z,0.70
2018-09-17T12:10:21.299Z,0.70
2018-09-17T12:11:21.517Z,0.60
2018-09-17T12:12:21.311Z,0.60
2018-09-17T12:13:21.321Z,0.60
2018-09-17T12:14:21.329Z,0.50
2018-09-17T12:15:21.333Z,0.60
2018-09-17T12:16:21.343Z,0.60
2018-09-17T12:17:21.348Z,0.60
2018-09-17T12:18:21.357Z,0.60
2018-09-17T12:19:21.363Z,0.60
2018-09-17T12:20:21.623Z,0.50
2018-09-17T12:21:21.375Z,0.50
2018-09-17T12:22:21.384Z,0.50
2018-09-17T12:23:21.392Z,0.50
2018-09-17T12:24:21.401Z,0.50
2018-09-17T12:25:21.405Z,0.50
2018-09-17T12:26:21.409Z,0.50
2018-09-17T12:27:21.415Z,0.50
2018-09-17T12:28:21.424Z,0.50
2018-09-17T12:29:21.427Z,0.50
2018-09-17T12:30:21.434Z,0.50
2018-09-17T12:31:21.484Z,0.50
2018-09-17T12:32:21.448Z,0.50
2018-09-17T12:33:21.454Z,0.50
2018-09-17T12:34:21.458Z,0.50
2018-09-17T12:35:21.466Z,0.50
2018-09-17T12:36:21.471Z,0.50
2018-09-17T12:37:21.475Z,0.50
2018-09-17T12:38:21.483Z,0.40
2018-09-17T12:39:21.486Z,0.50
2018-09-17T12:40:21.490Z,0.50
2018-09-17T12:41:21.497Z,0.40
2018-09-17T12:42:21.502Z,0.40
2018-09-17T12:43:21.508Z,0.40
2018-09-17T12:44:21.513Z,0.40
2018-09-17T12:45:21.523Z,0.40
2018-09-17T12:46:21.524Z,0.50
2018-09-17T12:47:21.530Z,0.40
2018-09-17T12:48:21.536Z,0.40
2018-09-17T12:49:21.539Z,0.40
2018-09-17T12:50:21.545Z,0.40
2018-09-17T12:51:21.551Z,0.40
2018-09-17T12:52:21.559Z,0.40
2018-09-17T12:53:21.563Z,0.40
2018-09-17T12:54:21.569Z,0.40
2018-09-17T12:55:21.571Z,0.40
2018-09-17T12:56:21.580Z,0.40
2018-09-17T12:57:21.642Z,0.40
2018-09-17T12:58:21.616Z,0.40
2018-09-17T12:59:21.594Z,0.40
2018-09-17T13:00:21.597Z,0.40
2018-09-17T13:01:21.603Z,0.40
2018-09-17T13:02:21.611Z,0.40
2018-09-17T13:03:21.703Z,0.40
2018-09-17T13:04:21.621Z,0.40
2018-09-17T13:05:21.625Z,0.40
2018-09-17T13:06:21.629Z,0.40
2018-09-17T13:07:21.640Z,0.40
2018-09-17T13:08:21.643Z,0.40
2018-09-17T13:09:21.646Z,0.40
2018-09-17T13:10:21.655Z,0.40
2018-09-17T13:11:21.662Z,0.40
2018-09-17T13:12:21.670Z,0.40
2018-09-17T13:13:21.671Z,0.40
2018-09-17T13:14:21.677Z,0.40
2018-09-17T13:15:21.688Z,0.50
2018-09-17T13:16:21.693Z,0.50
2018-09-17T13:17:21.704Z,0.40
2018-09-17T13:18:21.703Z,0.50
2018-09-17T13:19:21.713Z,0.50
2018-09-17T13:20:21.718Z,0.50